Latest Coastal Weather Observations for Truscott

IDD60701

Issued at 10:11 am CST Monday 20 April 2015 (issued every 10 minutes, with the page automatically refreshed every 10 minutes)

About coastal observations | Map of coastal stations | Coastal observations for NT | Marine services | Other Formats
Station Details ID: 001020 Name: TRUSCOTT Lat: -14.09 Lon: 126.39 Height: 51.0 m
Data from the previous 72 hours. | See also: Recent months at Truscott
Date/Time
CST
Temp

°C
Wind Pressure Rain
since 9am
mm
Weather Cloud Vis
km
Sea
Height
m
Swell
Dir
 
Speed
knots
Gust
knots
hPa Trend Height
m
Period
s
Dir
20/10:00am 29.0 E 10 19 1012.7 - 0.0 - - 10 - - - -
20/09:30am 28.1 ESE 12 21 1012.5 - 0.0 - - 10 - - - -
20/09:00am 27.5 ESE 9 17 1012.4 - 0.0 - - 10 - - - -
20/08:30am 27.1 ESE 7 11 1012.5 - 0.0 - Partly cloudy 10 - - - -
20/08:00am 26.6 ESE 7 11 1012.2 - 0.0 - - 10 - - - -
20/07:30am 26.5 ESE 6 8 1011.3 - 0.0 - - 8 - - - -
20/07:00am 26.7 ESE 7 10 1011.5 - 0.0 - - 9 - - - -
20/06:30am 26.9 ESE 7 11 1011.2 - 0.0 - - 7 - - - -
20/06:00am 26.7 ESE 5 9 1011.0 - 0.0 - - 10 - - - -
20/05:30am 26.4 ESE 5 9 1010.7 - 0.0 - - 10 - - - -
20/05:00am 25.3 E 3 5 1010.6 - 0.0 - - 9 - - - -
20/04:30am 25.5 ESE 3 4 1009.8 - 0.0 - - 10 - - - -
20/04:00am 25.5 SE 3 5 1010.5 - 0.0 - - 10 - - - -
20/03:30am 25.8 CALM 0 3 1010.8 - 0.0 - - 10 - - - -
20/03:00am 25.7 ESE 3 4 1011.2 - 0.0 - - 10 - - - -
20/02:30am 26.2 ESE 3 4 1011.8 - 0.0 - - 10 - - - -
20/02:00am 26.9 SE 3 5 1012.3 - 0.0 - - 10 - - - -
20/01:30am 27.2 SSE 4 5 1012.8 - 0.0 - - 9 - - - -
20/01:00am 27.3 SSE 4 5 1013.2 - 0.0 - - 10 - - - -
20/12:30am 27.3 SE 3 4 1013.5 - 0.0 - - 10 - - - -
20/12:00am 27.6 SE 5 7 1013.7 - 0.0 - - 10 - - - -
 
Date/Time
CST
Temp

°C
Wind Pressure Rain
since 9am
mm
Weather Cloud Vis
km
Sea
Height
m
Swell
Dir
 
Speed
knots
Gust
knots
hPa Trend Height
m
Period
s
Dir
19/11:30pm 27.4 SE 3 4 1013.3 - 0.0 - - 10 - - - -
19/11:00pm 27.4 CALM 0 0 1013.0 - 0.0 - - 10 - - - -
19/10:30pm 28.1 ENE 3 4 1012.5 - 0.0 - - 10 - - - -
19/10:00pm 28.6 ENE 4 5 1013.0 - 0.0 - - 10 - - - -
19/09:30pm 29.2 ENE 5 7 1012.7 - 0.0 - - 10 - - - -
19/09:00pm 29.4 NE 5 7 1012.5 - 0.0 - - 10 - - - -
19/08:30pm 29.2 NNE 4 8 1011.9 - 0.0 - - 8 - - - -
19/08:00pm 29.3 NE 4 6 1011.3 - 0.0 - - 10 - - - -
19/07:30pm 29.9 NE 3 7 1010.5 - 0.0 - - 10 - - - -
19/07:00pm 29.9 W 3 4 1010.8 - 0.0 - - 10 - - - -
19/06:30pm 30.0 NNW 6 8 1010.4 - 0.0 - - 10 - - - -
19/06:00pm 31.1 N 6 9 1010.0 - 0.0 - - 10 - - - -
19/05:30pm 31.6 N 7 11 1009.7 - 0.0 - - 10 - - - -
19/05:00pm 31.9 N 7 10 1009.7 - 0.0 - - 10 - - - -
19/04:30pm 33.0 NNE 7 11 1009.0 - 0.0 - - 10 - - - -
19/04:00pm 33.9 NE 8 13 1009.5 - 0.0 - Partly cloudy 10 - - - -
19/03:30pm 33.6 E 9 17 1009.5 - 0.0 - Partly cloudy 10 - - - -
19/03:00pm 33.5 E 7 13 1009.7 - 0.0 - Partly cloudy 10 - - - -
19/02:30pm 32.5 E 8 13 1010.4 - 0.0 - Partly cloudy 10 - - - -
19/02:00pm 32.7 E 6 10 1010.8 - 0.0 - Partly cloudy 10 - - - -
19/01:30pm 32.5 ENE 9 14 1010.4 - 0.0 - - 10 - - - -
19/01:00pm 32.2 E 7 11 1011.1 - 0.0 - - 10 - - - -
19/12:30pm 31.6 ESE 10 14 1011.4 - 0.0 - - 10 - - - -
19/12:00pm 32.1 SE 8 13 1011.9 - 0.0 - Partly cloudy 10 - - - -
19/11:30am 30.8 E 7 11 1012.7 - 0.0 - - 10 - - - -
19/11:00am 29.9 ESE 9 14 1012.9 - 0.0 - - 10 - - - -
19/10:30am 29.1 ESE 10 15 1012.5 - 0.0 - - 10 - - - -
19/10:00am 28.9 SE 7 11 1012.7 - 0.0 - - 10 - - - -
19/09:30am 28.0 ESE 10 16 1012.3 - 0.0 - - 10 - - - -
19/09:00am 27.4 SE 8 12 1012.0 - 0.0 - - 10 - - - -
19/08:30am 26.6 SE 8 11 1011.9 - 0.0 - - 10 - - - -
19/08:00am 25.7 ESE 6 9 1011.8 - 0.0 - - 10 - - - -
19/07:30am 25.3 SE 7 11 1011.2 - 0.0 - - 10 - - - -
19/07:00am 25.3 SE 4 6 1011.3 - 0.0 - - 10 - - - -
19/06:30am 25.9 SSE 6 8 1011.1 - 0.0 - - - - - - -
19/06:00am 26.3 SE 6 9 1011.0 - 0.0 - - 10 - - - -
19/05:30am 26.5 SSE 5 7 1011.0 - 0.0 - - 10 - - - -
19/05:00am 26.5 SSE 4 7 1011.1 - 0.0 - Partly cloudy 10 - - - -
19/04:30am 26.6 S 4 7 1010.5 - 0.0 - - 10 - - - -
19/04:00am 26.7 S 5 6 1010.9 - 0.0 - Partly cloudy 10 - - - -
19/03:30am 26.7 SSW 5 7 1011.0 - 0.0 - Partly cloudy 10 - - - -
19/03:00am 26.1 S 1 4 1011.0 - 0.0 - Partly cloudy 10 - - - -
19/02:30am 26.8 SSW 4 5 1011.3 - 0.0 - Partly cloudy 8 - - - -
19/02:00am 26.0 WSW 2 4 1011.4 - 0.0 - - 10 - - - -
19/01:30am 26.2 CALM 0 0 1011.1 - 0.0 - - 9 - - - -
19/01:00am 26.6 SW 3 4 1011.8 - 0.0 - - 10 - - - -
19/12:30am 26.7 SW 3 4 1012.0 - 0.0 - - 10 - - - -
19/12:00am 26.7 SSW 2 5 1012.0 - 0.0 - - 10 - - - -
 
Date/Time
CST
Temp

°C
Wind Pressure Rain
since 9am
mm
Weather Cloud Vis
km
Sea
Height
m
Swell
Dir
 
Speed
knots
Gust
knots
hPa Trend Height
m
Period
s
Dir
18/11:30pm 26.9 S 1 4 1012.2 - 0.0 - - 10 - - - -
18/11:00pm 27.4 SSW 4 6 1012.2 - 0.0 - - 10 - - - -
18/10:30pm 27.5 CALM 0 0 1011.6 - 0.0 - - 10 - - - -
18/10:00pm 27.7 S 3 4 1012.1 - 0.0 - - 8 - - - -
18/09:30pm 27.7 E 3 4 1012.1 - 0.0 - - 10 - - - -
18/09:00pm 27.9 SSE 3 6 1012.0 - 0.0 - - 10 - - - -
18/08:30pm 28.2 CALM 0 0 1011.3 - 0.0 - - 9 - - - -
18/08:00pm 28.9 CALM 0 3 1010.6 - 0.0 - - 10 - - - -
18/07:30pm 29.2 NNE 4 5 1009.8 - 0.0 - Mostly cloudy 10 - - - -
18/07:00pm 29.7 N 4 6 1009.8 - 0.0 - Partly cloudy 10 - - - -
18/06:30pm 30.6 N 5 6 1009.4 - 0.0 - - 10 - - - -
18/06:00pm 31.0 N 4 5 1009.0 - 0.0 - - 10 - - - -
18/05:30pm 30.8 NNW 3 4 1008.7 - 0.0 - - 10 - - - -
18/05:00pm 31.4 WNW 5 6 1008.8 - 0.0 - - 10 - - - -
18/04:30pm 32.0 W 6 8 1008.1 - 0.0 - Mostly clear 10 - - - -
18/04:00pm 33.3 WSW 5 8 1008.7 - 0.0 - - 10 - - - -
18/03:30pm 32.2 NW 6 7 1009.1 - 0.0 - - 10 - - - -
18/03:00pm 31.5 W 6 8 1009.4 - 0.0 - Partly cloudy 10 - - - -
18/02:30pm 31.6 W 8 11 1009.7 - 0.0 - Partly cloudy 10 - - - -
18/02:00pm 32.9 N 6 9 1010.0 - 0.0 - - 10 - - - -
18/01:30pm 32.0 E 5 8 1010.0 - 0.0 - Mostly clear 10 - - - -
18/01:00pm 31.6 SSE 7 10 1010.9 - 0.0 - Partly cloudy 10 - - - -
18/12:30pm 31.7 ESE 4 7 1011.3 - 0.0 - Partly cloudy 10 - - - -
18/12:00pm 30.8 WSW 5 9 1011.9 - 0.0 - Partly cloudy 10 - - - -
18/11:30am 30.9 SW 5 9 1012.2 - 0.0 - Partly cloudy 10 - - - -
18/11:00am 29.8 SE 4 6 1012.4 - 0.0 - - 10 - - - -
18/10:30am 28.9 SSE 4 6 1012.0 - 0.0 - - 10 - - - -
18/10:00am 28.2 SE 5 7 1012.5 - 0.0 - - 10 - - - -
18/09:30am 28.2 SE 5 8 1012.2 - 0.0 - - 10 - - - -
18/09:00am 28.3 S 5 9 1012.0 - 0.0 - - 10 - - - -
18/08:30am 27.6 SSE 4 6 1012.1 - 0.0 - - 10 - - - -
18/08:00am 26.5 CALM 0 0 1011.9 - 0.0 - - 10 - - - -
18/07:30am 26.0 CALM 0 0 1011.1 - 0.0 - - 10 - - - -
18/07:00am 26.0 CALM 0 0 1011.5 - 0.0 - - 10 - - - -
18/06:30am 26.1 S 2 4 1011.1 - 0.0 - - 10 - - - -
18/06:00am 26.4 S 4 5 1011.0 - 0.0 - - 10 - - - -
18/05:30am 25.9 CALM 0 0 1010.9 - 0.0 - - 10 - - - -
18/05:00am 25.9 S 2 3 1010.6 - 0.0 - - 10 - - - -
18/04:30am 26.8 SSW 4 5 1009.8 - 0.0 - - 10 - - - -
18/04:00am 26.7 SW 4 4 1010.1 - 0.0 - - 10 - - - -
18/03:30am 26.8 SSW 4 5 1010.3 - 0.0 - Partly cloudy 10 - - - -
18/03:00am 26.2 CALM 0 5 1010.5 - 0.0 - Partly cloudy 10 - - - -
18/02:30am 27.0 CALM 0 0 1010.9 - 0.0 - - 10 - - - -
18/02:00am 26.5 CALM 0 0 1011.4 - 0.0 - Partly cloudy 10 - - - -
18/01:30am 26.6 CALM 0 0 1011.1 - 0.0 - - 10 - - - -
18/01:00am 26.6 CALM 0 0 1011.7 - 0.0 - - 10 - - - -
18/12:30am 27.1 CALM 0 0 1011.8 - 0.0 - - 10 - - - -
18/12:00am 26.9 CALM 0 0 1011.8 - 0.0 - - 10 - - - -
 
Date/Time
CST
Temp

°C
Wind Pressure Rain
since 9am
mm
Weather Cloud Vis
km
Sea
Height
m
Swell
Dir
 
Speed
knots
Gust
knots
hPa Trend Height
m
Period
s
Dir
17/11:30pm 27.0 CALM 0 0 1012.0 - 0.0 - - 10 - - - -
17/11:00pm 26.8 CALM 0 0 1012.3 - 0.0 - - 10 - - - -
17/10:30pm 27.0 CALM 0 0 1012.0 - 0.0 - - 10 - - - -
17/10:00pm 26.9 CALM 0 0 1012.2 - 0.0 - - 10 - - - -
17/09:30pm 27.2 CALM 0 0 1012.0 - 0.0 - - 10 - - - -
17/09:00pm 27.7 CALM 0 0 1011.7 - 0.0 - - 10 - - - -
17/08:30pm 28.1 NNE 2 4 1011.2 - 0.0 - - 10 - - - -
17/08:00pm 28.4 N 4 5 1010.7 - 0.0 - - 10 - - - -
17/07:30pm 28.6 N 4 6 1009.7 - 0.0 - - 10 - - - -
17/07:00pm 29.1 N 6 8 1010.0 - 0.0 - - 10 - - - -
17/06:30pm 29.8 N 6 9 1009.7 - 0.0 - - 10 - - - -
17/06:00pm 30.5 N 7 10 1009.5 - 0.0 - - 10 - - - -
17/05:30pm 30.7 N 8 11 1009.2 - 0.0 - - 10 - - - -
17/05:00pm 31.5 N 9 13 1009.1 - 0.0 - Partly cloudy 10 - - - -
17/04:30pm 31.7 N 8 13 1008.4 - 0.0 - - 10 - - - -
17/04:00pm 32.2 N 9 13 1009.1 - 0.0 - Partly cloudy 10 - - - -
17/03:30pm 32.3 N 8 13 1009.2 - 0.0 - Partly cloudy 10 - - - -
17/03:00pm 32.4 NNE 6 8 1009.6 - 0.0 - Partly cloudy 10 - - - -
17/02:30pm 33.2 NE 7 11 1010.0 - 0.0 - Partly cloudy 10 - - - -
17/02:00pm 33.2 ENE 8 13 1010.4 - 0.0 - - 10 - - - -
17/01:30pm 33.1 E 7 11 1010.2 - 0.0 - - 10 - - - -
17/01:00pm 32.9 ENE 7 11 1011.0 - 0.0 - - 10 - - - -
17/12:30pm 32.8 E 6 11 1011.3 - 0.0 - - 10 - - - -
17/12:00pm 32.5 E 5 8 1011.9 - 0.0 - - 10 - - - -

Other Formats:

Comma delimited format used in spreadsheet applications
http://www.bom.gov.au/fwo/IDD60701/IDD60701.95101.axf

JavaScript Object Notation format (JSON) in row-major order
http://www.bom.gov.au/fwo/IDD60701/IDD60701.95101.json